Time;durP1;ratioP1;P1;durP2;ratioP2;P2;SDS_P1;SDS_P2;PMS_P1;PMS_P2;Temp;Humidity;BMP_temperature;BMP_pressure;BME280_temperature;BME280_humidity;BME280_pressure;Samples;Min_cycle;Max_cycle;Signal;HPM_P1;HPM_P2
2022/12/03 00:03:57;;;;;;;10.75;5.53;;;;;;;;;;6077043;23;20030;-80
2022/12/03 00:10:00;;;;;;;8.18;5.22;;;;;;;;;;6107981;23;20362;-80
2022/12/03 00:20:19;;;;;;;10.10;6.20;;;3.40;99.90;;;;;;5992718;24;20049;-79
2022/12/03 00:23:43;;;;;;;10.20;6.28;;;;;;;;;;5937108;24;20021;-80
2022/12/03 00:27:15;;;;;;;14.57;6.70;;;3.60;99.90;;;;;;5909531;24;20400;-80
2022/12/03 00:42:42;;;;;;;10.07;5.85;;;;;;;;;;5963741;24;20019;-80
2022/12/03 00:51:56;;;;;;;13.45;7.30;;;3.60;99.90;;;;;;6010712;23;20034;-83
2022/12/03 01:05:15;;;;;;;11.77;6.32;;;3.50;99.90;;;;;;6116065;23;20021;-81
2022/12/03 01:07:41;;;;;;;12.55;5.85;;;;;;;;;;6107518;23;20022;-81
2022/12/03 01:10:11;;;;;;;10.60;5.85;;;;;;;;;;6105104;23;20033;-81
2022/12/03 05:02:24;;;;;;;15.48;7.00;;;;;;;;;;6217360;23;20016;-81
2022/12/03 05:04:59;;;;;;;15.43;7.53;;;;;;;;;;6199422;23;20009;-80
2022/12/03 05:07:28;;;;;;;14.70;7.80;;;;;;;;;;6196583;23;20079;-83
2022/12/03 05:09:57;;;;;;;15.02;7.75;;;;;;;;;;6194826;23;20071;-82
2022/12/03 05:12:27;;;;;;;16.17;8.63;;;;;;;;;;6221412;23;20004;-81
2022/12/03 05:14:53;;;;;;;18.55;8.40;;;;;;;;;;6221379;23;20080;-82
2022/12/03 05:17:25;;;;;;;18.20;9.90;;;;;;;;;;6196127;23;20440;-82
2022/12/03 05:22:39;;;;;;;14.68;7.38;;;;;;;;;;6223618;23;20019;-82
2022/12/03 05:25:06;;;;;;;17.63;9.25;;;;;;;;;;6197038;23;20076;-81
2022/12/03 05:27:35;;;;;;;15.85;8.55;;;;;;;;;;6223050;23;20305;-82
2022/12/03 05:44:53;;;;;;;16.33;8.05;;;3.60;99.90;;;;;;6231598;23;20088;-81
2022/12/03 05:51:16;;;;;;;18.83;8.73;;;;;;;;;;6193792;23;20035;-81
2022/12/03 06:01:29;;;;;;;18.33;9.35;;;;;;;;;;6193799;23;20336;-82
2022/12/03 06:03:58;;;;;;;20.88;9.70;;;;;;;;;;6218999;23;20000;-82
2022/12/03 06:06:26;;;;;;;17.65;9.18;;;;;;;;;;6196647;23;20034;-84
2022/12/03 06:08:57;;;;;;;20.30;10.13;;;;;;;;;;6197334;23;20070;-82
2022/12/03 06:16:36;;;;;;;18.45;9.82;;;;;;;;;;6197820;23;20459;-82
2022/12/03 06:19:02;;;;;;;19.30;8.65;;;;;;;;;;6193354;23;20009;-81
2022/12/03 06:21:31;;;;;;;18.40;9.35;;;;;;;;;;6191459;23;20043;-82
2022/12/03 06:24:00;;;;;;;20.02;9.70;;;;;;;;;;6166567;23;20016;-82
2022/12/03 06:26:26;;;;;;;21.35;9.95;;;;;;;;;;6166150;23;20004;-82
2022/12/03 06:28:59;;;;;;;25.30;9.80;;;;;;;;;;6193634;23;20126;-82
2022/12/03 06:47:21;;;;;;;20.52;9.55;;;;;;;;;;6146523;23;20033;-83
2022/12/03 07:29:59;;;;;;;23.52;9.90;;;;;;;;;;6181134;23;20009;-83
2022/12/03 07:42:08;;;;;;;24.67;11.45;;;;;;;;;;6168789;23;20105;-82
2022/12/03 07:48:40;;;;;;;24.38;11.35;;;3.60;99.90;;;;;;6169096;23;20028;-81
2022/12/03 07:51:53;;;;;;;23.40;10.50;;;;;;;;;;6031085;23;20008;-81
2022/12/03 07:55:07;;;;;;;;;;;;;;;;;;;;;
2022/12/03 08:28:39;;;;;;;20.45;9.75;;;;;;;;;;6238226;23;20023;-81
2022/12/03 09:40:27;;;;;;;21.75;10.35;;;;;;;;;;6193408;23;20016;-81
2022/12/03 09:50:23;;;;;;;22.50;11.00;;;;;;;;;;6196462;23;20032;-80
2022/12/03 09:53:48;;;;;;;19.67;9.68;;;;;;;;;;6159200;23;20005;-80
2022/12/03 10:18:42;;;;;;;23.00;10.85;;;;;;;;;;6175042;23;20500;-81
2022/12/03 10:24:44;;;;;;;25.23;11.07;;;;;;;;;;6130748;23;20531;-81
2022/12/03 10:57:46;;;;;;;23.67;10.43;;;;;;;;;;6194990;23;20028;-81
2022/12/03 11:00:27;;;;;;;21.40;10.27;;;;;;;;;;6190426;23;20047;-82
2022/12/03 11:02:57;;;;;;;23.10;11.18;;;;;;;;;;6192307;23;20009;-81
2022/12/03 11:05:28;;;;;;;24.02;10.98;;;;;;;;;;6174744;23;20024;-84
2022/12/03 11:08:22;;;;;;;20.08;10.05;;;;;;;;;;6187198;23;19990;-83
2022/12/03 11:24:02;;;;;;;21.73;10.55;;;;;;;;;;6142414;23;20016;-81
2022/12/03 11:26:29;;;;;;;23.20;10.55;;;;;;;;;;6198046;23;20011;-83
2022/12/03 11:29:02;;;;;;;22.10;10.43;;;;;;;;;;6202621;23;20000;-82
2022/12/03 11:34:21;;;;;;;22.58;10.82;;;;;;;;;;6213201;22;20332;-83
2022/12/03 11:37:06;;;;;;;20.85;10.13;;;;;;;;;;6196763;23;20013;-82
2022/12/03 11:39:54;;;;;;;19.80;9.82;;;;;;;;;;6198880;23;20066;-82
2022/12/03 11:42:32;;;;;;;20.95;11.15;;;;;;;;;;6192600;23;20012;-81
2022/12/03 11:45:07;;;;;;;25.33;12.27;;;;;;;;;;6190899;23;20001;-82
2022/12/03 11:47:41;;;;;;;21.13;11.07;;;;;;;;;;6191080;23;20001;-83
2022/12/03 11:50:37;;;;;;;19.73;10.25;;;;;;;;;;6190990;23;20001;-82
2022/12/03 11:53:07;;;;;;;21.40;9.35;;;;;;;;;;6164168;23;20439;-81
2022/12/03 11:55:38;;;;;;;21.38;11.05;;;;;;;;;;6165969;23;20005;-82
2022/12/03 11:58:16;;;;;;;;;;;4.70;99.90;;;;;;6190495;23;20339;-81
2022/12/03 12:00:50;;;;;;;21.48;10.27;;;;;;;;;;6191835;23;19915;-83
2022/12/03 12:03:47;;;;;;;18.58;9.90;;;;;;;;;;6192106;23;20467;-82
2022/12/03 12:06:22;;;;;;;24.77;11.55;;;;;;;;;;6140269;23;20013;-81
2022/12/03 12:08:51;;;;;;;19.25;10.43;;;;;;;;;;6189471;23;20013;-81
2022/12/03 12:11:29;;;;;;;23.38;11.95;;;;;;;;;;6191434;23;20024;-81
2022/12/03 12:13:58;;;;;;;20.52;10.30;;;;;;;;;;6190719;23;20009;-82
2022/12/03 12:16:44;;;;;;;19.23;9.82;;;;;;;;;;6190710;23;20343;-83
2022/12/03 12:19:43;;;;;;;19.70;9.60;;;4.80;99.90;;;;;;6190879;23;20063;-82
2022/12/03 12:22:20;;;;;;;20.17;10.23;;;;;;;;;;6193075;23;20076;-82
2022/12/03 12:24:55;;;;;;;21.63;10.05;;;;;;;;;;6193772;23;20363;-82
2022/12/03 12:27:38;;;;;;;20.42;10.43;;;;;;;;;;6190071;23;20344;-83
2022/12/03 12:30:12;;;;;;;23.88;10.82;;;;;;;;;;6191508;23;20001;-81
2022/12/03 12:32:49;;;;;;;21.10;11.00;;;;;;;;;;6193427;23;20428;-81
2022/12/03 12:35:31;;;;;;;20.75;10.68;;;;;;;;;;6192891;23;20025;-82
2022/12/03 12:38:03;;;;;;;21.65;10.65;;;;;;;;;;6200109;23;20001;-81
2022/12/03 12:40:49;;;;;;;19.85;10.05;;;;;;;;;;6197938;23;19997;-81
2022/12/03 12:43:28;;;;;;;21.98;9.88;;;;;;;;;;6198418;23;20507;-82
2022/12/03 12:46:13;;;;;;;16.95;8.90;;;;;;;;;;6210149;23;20020;-82
2022/12/03 12:48:39;;;;;;;20.27;10.52;;;;;;;;;;6162096;23;20016;-85
2022/12/03 12:51:37;;;;;;;19.48;9.40;;;;;;;;;;6213608;23;20016;-83
2022/12/03 13:02:57;;;;;;;18.52;9.07;;;;;;;;;;6229926;23;20100;-81
2022/12/03 13:09:02;;;;;;;18.60;9.00;;;;;;;;;;6230506;23;20483;-82
2022/12/03 13:21:47;;;;;;;18.42;9.18;;;;;;;;;;6234048;23;20047;-83
2022/12/03 13:34:11;;;;;;;20.85;10.25;;;;;;;;;;6232628;23;20019;-80
2022/12/03 13:36:54;;;;;;;19.08;9.45;;;;;;;;;;6181652;23;20024;-81
2022/12/03 13:40:17;;;;;;;16.73;8.63;;;4.90;99.90;;;;;;6141767;23;20010;-79
2022/12/03 13:43:05;;;;;;;15.98;8.48;;;;;;;;;;6162485;23;20020;-83
2022/12/03 14:37:11;;;;;;;18.13;9.60;;;;;;;;;;6239859;22;20031;-83
2022/12/03 14:40:07;;;;;;;19.27;9.25;;;;;;;;;;6215155;23;20055;-83
2022/12/03 14:46:00;;;;;;;16.00;8.38;;;;;;;;;;6226466;22;20043;-82
2022/12/03 14:48:27;;;;;;;17.30;8.80;;;;;;;;;;6241989;22;20028;-83
2022/12/03 14:50:53;;;;;;;17.77;9.18;;;;;;;;;;6242911;22;20048;-83
2022/12/03 14:53:23;;;;;;;17.45;8.50;;;;;;;;;;6214817;23;20115;-82
2022/12/03 14:55:54;;;;;;;19.15;9.32;;;;;;;;;;6233936;23;20005;-83
2022/12/03 14:58:25;;;;;;;20.40;10.48;;;;;;;;;;6205077;23;19996;-83
2022/12/03 15:00:53;;;;;;;18.17;9.05;;;;;;;;;;6202739;23;20501;-82
2022/12/03 15:03:20;;;;;;;17.02;8.82;;;;;;;;;;6201001;23;20005;-81
2022/12/03 15:05:49;;;;;;;17.33;9.43;;;;;;;;;;6230490;23;20064;-82
2022/12/03 15:08:16;;;;;;;21.05;10.40;;;;;;;;;;6201432;23;20092;-82
2022/12/03 15:10:46;;;;;;;21.02;10.20;;;;;;;;;;6211047;23;20005;-82
2022/12/03 15:13:14;;;;;;;17.13;9.07;;;;;;;;;;6226937;23;20035;-83
2022/12/03 15:15:44;;;;;;;20.13;10.13;;;;;;;;;;6227146;23;20035;-82
2022/12/03 15:18:11;;;;;;;20.42;10.32;;;;;;;;;;6224713;23;20015;-82
2022/12/03 15:20:41;;;;;;;18.73;9.20;;;;;;;;;;6196701;23;20020;-82
2022/12/03 15:23:12;;;;;;;20.27;9.93;;;;;;;;;;6224706;23;20020;-81
2022/12/03 15:25:40;;;;;;;19.70;10.98;;;;;;;;;;6196134;23;20019;-82
2022/12/03 15:28:07;;;;;;;20.17;9.30;;;;;;;;;;6197261;23;20015;-82
2022/12/03 15:30:37;;;;;;;20.63;9.98;;;;;;;;;;6221978;23;20034;-81
2022/12/03 15:33:07;;;;;;;19.38;9.38;;;;;;;;;;6195875;23;20008;-81
2022/12/03 15:35:34;;;;;;;19.73;9.23;;;;;;;;;;6223435;23;20005;-80
2022/12/03 15:38:02;;;;;;;19.02;9.95;;;;;;;;;;6197279;23;20028;-80
2022/12/03 15:40:29;;;;;;;21.13;10.25;;;;;;;;;;6223713;23;20008;-81
2022/12/03 15:42:56;;;;;;;19.35;9.70;;;;;;;;;;6224769;23;20017;-81
2022/12/03 15:45:25;;;;;;;18.73;9.27;;;;;;;;;;6196792;23;20078;-81
2022/12/03 15:47:53;;;;;;;23.38;11.68;;;;;;;;;;6200813;23;20001;-81
2022/12/03 15:50:24;;;;;;;20.50;9.37;;;;;;;;;;6225696;23;20004;-81
2022/12/03 15:52:54;;;;;;;19.85;9.85;;;;;;;;;;6198226;23;20005;-81
2022/12/03 15:55:28;;;;;;;17.70;9.48;;;;;;;;;;6224933;23;19997;-81
2022/12/03 15:57:59;;;;;;;19.15;10.25;;;;;;;;;;6228891;23;20023;-82
2022/12/03 16:00:29;;;;;;;16.90;9.38;;;;;;;;;;6206892;23;20431;-82
2022/12/03 16:02:59;;;;;;;18.75;10.02;;;;;;;;;;6212940;23;20008;-80
2022/12/03 16:05:39;;;;;;;21.52;10.52;;;;;;;;;;6242487;23;20431;-83
2022/12/03 16:08:24;;;;;;;19.83;9.70;;;;;;;;;;6243115;23;19984;-83
2022/12/03 16:11:15;;;;;;;20.30;10.73;;;;;;;;;;6214736;23;20024;-83
2022/12/03 16:13:46;;;;;;;18.77;9.77;;;;;;;;;;6234318;23;20008;-83
2022/12/03 16:16:19;;;;;;;21.45;10.45;;;;;;;;;;6232451;23;20004;-83
2022/12/03 16:19:07;;;;;;;21.23;10.23;;;;;;;;;;6232786;23;20008;-83
2022/12/03 17:07:15;;;;;;;26.58;13.13;;;;;;;;;;6161970;23;20027;-91
2022/12/03 17:51:12;;;;;;;30.58;14.75;;;;;;;;;;6196119;23;20009;-83
2022/12/03 18:12:26;;;;;;;26.02;13.00;;;;;;;;;;6213463;23;20005;-87
2022/12/03 19:02:18;;;;;;;29.55;15.27;;;;;;;;;;6212342;23;20036;-84
2022/12/03 19:05:04;;;;;;;29.20;13.85;;;;;;;;;;6186882;23;20013;-84
2022/12/03 19:07:42;;;;;;;30.98;14.50;;;;;;;;;;6185613;23;20001;-85
2022/12/03 19:13:26;;;;;;;31.25;14.80;;;;;;;;;;6212210;23;20032;-84
2022/12/03 19:32:40;;;;;;;28.17;13.73;;;;;;;;;;6242767;22;20031;-84
2022/12/03 19:36:04;;;;;;;30.85;14.65;;;;;;;;;;6241113;22;20021;-85
2022/12/03 19:42:00;;;;;;;30.92;14.52;;;;;;;;;;6242459;22;20095;-84
2022/12/03 19:44:52;;;;;;;27.98;13.10;;;4.30;99.90;;;;;;6218330;22;20027;-88
2022/12/03 19:47:23;;;;;;;30.75;14.90;;;;;;;;;;6241934;23;20042;-89
2022/12/03 19:50:01;;;;;;;29.27;14.38;;;;;;;;;;6243140;22;19996;-90
2022/12/03 19:55:49;;;;;;;29.52;14.02;;;;;;;;;;6231594;23;20016;-91
2022/12/03 19:58:35;;;;;;;30.80;14.10;;;;;;;;;;6151501;23;20014;-89
2022/12/03 20:01:34;;;;;;;31.65;15.00;;;4.30;99.90;;;;;;6239025;22;20011;-90
2022/12/03 20:04:25;;;;;;;29.45;14.70;;;;;;;;;;6241926;22;19993;-90
2022/12/03 20:07:28;;;;;;;33.28;15.43;;;4.20;99.90;;;;;;6243915;23;20012;-89
2022/12/03 20:12:55;;;;;;;32.53;15.30;;;;;;;;;;6206692;22;20008;-84
2022/12/03 20:15:25;;;;;;;32.22;14.80;;;;;;;;;;6228562;22;19997;-87
2022/12/03 20:38:36;;;;;;;30.48;14.27;;;;;;;;;;6197489;23;20021;-85
2022/12/03 20:41:06;;;;;;;31.98;15.70;;;;;;;;;;6196065;23;20001;-82
2022/12/03 20:43:32;;;;;;;29.38;13.88;;;;;;;;;;6196232;23;20009;-83
2022/12/03 20:46:05;;;;;;;29.20;14.00;;;;;;;;;;6195900;23;19998;-81
2022/12/03 20:48:31;;;;;;;27.58;13.02;;;;;;;;;;6164439;23;20430;-80
2022/12/03 20:50:57;;;;;;;28.55;14.38;;;;;;;;;;6164019;23;20032;-82
2022/12/03 20:53:23;;;;;;;29.13;13.90;;;;;;;;;;6158192;23;20327;-84
2022/12/03 20:55:56;;;;;;;28.50;13.80;;;;;;;;;;6159751;23;20240;-80
2022/12/03 20:58:35;;;;;;;26.38;12.80;;;;;;;;;;6163654;23;20001;-80
2022/12/03 21:01:22;;;;;;;29.17;13.07;;;;;;;;;;6161323;23;20069;-80
2022/12/03 21:03:49;;;;;;;28.35;12.55;;;;;;;;;;6158736;23;20005;-83
2022/12/03 21:06:16;;;;;;;29.92;13.75;;;;;;;;;;6158919;23;20069;-82
2022/12/03 21:08:47;;;;;;;26.88;13.13;;;;;;;;;;6158319;23;20002;-83
2022/12/03 21:11:15;;;;;;;27.65;13.80;;;;;;;;;;6158318;23;20006;-79
2022/12/03 21:13:42;;;;;;;28.10;12.93;;;;;;;;;;6163133;23;20005;-81
2022/12/03 21:16:10;;;;;;;25.73;13.25;;;;;;;;;;6161694;23;20009;-80
2022/12/03 21:18:36;;;;;;;32.45;14.15;;;;;;;;;;6161271;23;20009;-85
2022/12/03 21:21:03;;;;;;;31.48;13.77;;;;;;;;;;6161598;23;20009;-78
2022/12/03 21:23:30;;;;;;;27.08;13.77;;;;;;;;;;6159846;23;20005;-80
2022/12/03 21:26:03;;;;;;;29.48;13.95;;;;;;;;;;6161479;23;20005;-80
2022/12/03 21:28:29;;;;;;;31.65;15.40;;;;;;;;;;6170359;23;20104;-88
2022/12/03 21:30:59;;;;;;;30.63;13.60;;;;;;;;;;6178909;23;20371;-81
2022/12/03 21:33:25;;;;;;;32.95;14.88;;;;;;;;;;6171273;23;20009;-80
2022/12/03 21:35:51;;;;;;;32.95;15.88;;;;;;;;;;6161550;23;20319;-82
2022/12/03 21:38:17;;;;;;;31.92;14.95;;;;;;;;;;6159727;23;20024;-81
2022/12/03 21:40:43;;;;;;;29.80;14.70;;;;;;;;;;6156411;23;19997;-80
2022/12/03 21:43:09;;;;;;;31.17;14.85;;;;;;;;;;6160595;23;20318;-81
2022/12/03 21:45:35;;;;;;;30.42;15.50;;;;;;;;;;6160025;23;20033;-82
2022/12/03 21:48:01;;;;;;;31.83;14.63;;;;;;;;;;6161193;23;20002;-85
2022/12/03 21:50:27;;;;;;;32.90;15.43;;;;;;;;;;6162803;23;20031;-82
2022/12/03 21:52:54;;;;;;;30.80;15.18;;;;;;;;;;6160365;23;20001;-83
2022/12/03 21:55:20;;;;;;;30.27;14.32;;;;;;;;;;6160208;23;20013;-82
2022/12/03 21:57:46;;;;;;;37.22;16.55;;;;;;;;;;6163259;23;20005;-79
2022/12/03 22:00:13;;;;;;;30.42;14.15;;;;;;;;;;6163702;23;20005;-85
2022/12/03 22:02:39;;;;;;;34.25;15.38;;;;;;;;;;6159524;23;20005;-79
2022/12/03 22:05:09;;;;;;;32.35;14.60;;;;;;;;;;6159969;23;20077;-82
2022/12/03 22:07:35;;;;;;;29.25;15.02;;;;;;;;;;6159803;23;20013;-81
2022/12/03 22:10:01;;;;;;;33.60;14.23;;;;;;;;;;6158730;23;20092;-81
2022/12/03 22:12:27;;;;;;;31.92;14.75;;;;;;;;;;6161056;23;20009;-81
2022/12/03 22:14:55;;;;;;;32.70;15.75;;;;;;;;;;6159335;23;20016;-80
2022/12/03 22:17:22;;;;;;;34.25;15.70;;;;;;;;;;6158424;23;20010;-82
2022/12/03 22:19:48;;;;;;;28.30;15.00;;;;;;;;;;6159665;23;20036;-84
2022/12/03 22:22:14;;;;;;;33.22;14.98;;;;;;;;;;6158088;23;20010;-85
2022/12/03 22:24:40;;;;;;;29.73;15.70;;;;;;;;;;6158590;23;20009;-82
2022/12/03 22:27:06;;;;;;;27.73;14.48;;;;;;;;;;6158360;23;20009;-80
2022/12/03 22:29:32;;;;;;;28.80;14.82;;;;;;;;;;6158513;23;20001;-86
2022/12/03 22:31:58;;;;;;;29.63;14.15;;;;;;;;;;6158535;23;20015;-80
2022/12/03 22:34:24;;;;;;;27.23;13.45;;;;;;;;;;6157697;23;20032;-87
2022/12/03 22:36:50;;;;;;;27.85;13.98;;;;;;;;;;6161697;23;20013;-80
2022/12/03 22:39:16;;;;;;;30.02;14.73;;;;;;;;;;6135896;23;20077;-80
2022/12/03 22:41:42;;;;;;;28.38;14.48;;;;;;;;;;6135486;23;20032;-82
2022/12/03 22:44:08;;;;;;;30.45;14.68;;;;;;;;;;6160230;23;20006;-81
2022/12/03 22:46:34;;;;;;;31.00;14.93;;;;;;;;;;6134739;23;20097;-80
2022/12/03 22:49:00;;;;;;;31.13;15.10;;;;;;;;;;6136698;23;20010;-82
2022/12/03 22:51:26;;;;;;;31.48;15.15;;;;;;;;;;6160954;23;20005;-82
2022/12/03 22:53:56;;;;;;;28.02;14.43;;;;;;;;;;6159493;23;20497;-81
2022/12/03 22:56:22;;;;;;;37.17;16.35;;;;;;;;;;6161523;23;20033;-80
2022/12/03 22:58:49;;;;;;;32.22;15.38;;;;;;;;;;6161095;23;20519;-84
2022/12/03 23:01:25;;;;;;;31.67;14.68;;;;;;;;;;6158956;23;20025;-83
2022/12/03 23:03:51;;;;;;;32.67;15.55;;;;;;;;;;6162115;23;20057;-80
2022/12/03 23:06:18;;;;;;;33.80;15.80;;;;;;;;;;6157406;23;20009;-80
2022/12/03 23:08:44;;;;;;;32.63;15.80;;;;;;;;;;6160464;23;20002;-80
2022/12/03 23:11:11;;;;;;;35.60;15.77;;;;;;;;;;6136724;23;20017;-86
2022/12/03 23:13:37;;;;;;;36.83;16.48;;;;;;;;;;6160283;23;20032;-81
2022/12/03 23:16:03;;;;;;;33.58;15.48;;;;;;;;;;6158759;23;20009;-81
2022/12/03 23:18:32;;;;;;;30.45;15.20;;;;;;;;;;6160250;23;20441;-80
2022/12/03 23:20:59;;;;;;;32.53;15.50;;;;;;;;;;6160103;23;20009;-84
2022/12/03 23:23:26;;;;;;;34.13;15.13;;;;;;;;;;6163974;23;20036;-82
2022/12/03 23:25:59;;;;;;;32.72;15.23;;;;;;;;;;6161468;23;20040;-80
2022/12/03 23:28:26;;;;;;;32.05;14.68;;;;;;;;;;6161823;23;20010;-85
2022/12/03 23:30:55;;;;;;;30.75;14.85;;;;;;;;;;6160962;23;20089;-80
2022/12/03 23:33:22;;;;;;;32.25;16.50;;;;;;;;;;6162293;23;20064;-82
2022/12/03 23:35:50;;;;;;;31.27;14.43;;;;;;;;;;6162615;23;20164;-83
2022/12/03 23:38:16;;;;;;;33.47;15.30;;;;;;;;;;6162381;23;20023;-87
2022/12/03 23:40:42;;;;;;;29.17;13.88;;;;;;;;;;6163392;23;20033;-83
2022/12/03 23:43:08;;;;;;;31.65;14.77;;;;;;;;;;6163959;23;20460;-82
2022/12/03 23:45:34;;;;;;;33.45;14.68;;;;;;;;;;6164382;23;20066;-80
2022/12/03 23:48:01;;;;;;;33.13;14.82;;;;;;;;;;6161836;23;20077;-81
2022/12/03 23:50:27;;;;;;;29.13;14.32;;;;;;;;;;6163019;23;20097;-81
2022/12/03 23:52:53;;;;;;;36.67;15.57;;;;;;;;;;6163890;23;20053;-81
2022/12/03 23:55:19;;;;;;;34.80;16.20;;;;;;;;;;6162984;23;20069;-81
2022/12/03 23:57:45;;;;;;;33.03;15.35;;;;;;;;;;6163827;23;20426;-80
